Kezdőlap
METAR-TAF:

METAR-TAF

Repülőterek :

Colonel James Jabara Airport

Wichita, Kansas, Amerikai Egyesült Államok

földrajzi szélesség: 37-44-59N, földrajzi hosszúság: 097-13-08W, magasság: 432 m

Jelenlegi meteorológiai megfigyelések

A jelentés 53 perccel ezelõtt készült, 03:54 UTC
Dél-délkeleti szél 15 kt széllökések: 24 kt
Hőmérséklet 28°C
Páratartalom 62%
Légköri nyomás 1010 hPa
Látótávolság: 16.1 km
Derült ég

METAR: KAAO 170354Z AUTO 16015G24KT 10SM CLR 28/20 A2982 RMK AO2 SLP080 T02780200

Idő: 23:47 (04:47 UTC)


TAF: hiányzik

Meteorológiai megfigyelések és előrejelzések több, mint 4000 repülőtéren (METAR és TAF jelentéseket).

A térképen piros és sárga pontok jelzik az elérhető meteorológiai állomásokat.

Mozgassa az egeret a pont fölött, hogy megjelenjen az állomás neve.

Azután kattintson az időjárási megfigyelések és előrejelzések megtekintéséhez.

A térkép megváltoztatása: kattintson a fekete keresztel jelölt zöld gombra ráközelítéshez, a vonallal jelölt zöld gombra távolításhoz, vagy a zöld nyilakra a szomszédos térképek eléréséhez.


METAR-TAF: